sensor_id;sensor_type;location;lat;lon;timestamp;P1;durP1;ratioP1;P2;durP2;ratioP2
63738;SDS011;68816;45.558;10.070;2024-01-30T00:00:40;74.78;;;38.50;;
63738;SDS011;68816;45.558;10.070;2024-01-30T00:03:06;72.10;;;38.75;;
63738;SDS011;68816;45.558;10.070;2024-01-30T00:05:31;73.50;;;38.42;;
63738;SDS011;68816;45.558;10.070;2024-01-30T00:07:57;71.63;;;38.53;;
63738;SDS011;68816;45.558;10.070;2024-01-30T00:10:22;71.15;;;38.28;;
63738;SDS011;68816;45.558;10.070;2024-01-30T00:12:47;71.00;;;38.25;;
63738;SDS011;68816;45.558;10.070;2024-01-30T00:15:13;76.43;;;37.38;;
63738;SDS011;68816;45.558;10.070;2024-01-30T00:17:38;68.13;;;37.28;;
63738;SDS011;68816;45.558;10.070;2024-01-30T00:20:04;69.28;;;35.60;;
63738;SDS011;68816;45.558;10.070;2024-01-30T00:22:33;69.68;;;37.10;;
63738;SDS011;68816;45.558;10.070;2024-01-30T00:24:58;69.43;;;35.78;;
63738;SDS011;68816;45.558;10.070;2024-01-30T00:27:24;65.75;;;34.50;;
63738;SDS011;68816;45.558;10.070;2024-01-30T00:29:49;63.63;;;32.55;;
63738;SDS011;68816;45.558;10.070;2024-01-30T00:32:14;59.58;;;32.05;;
63738;SDS011;68816;45.558;10.070;2024-01-30T00:34:41;58.30;;;32.45;;
63738;SDS011;68816;45.558;10.070;2024-01-30T00:37:07;56.78;;;32.42;;
63738;SDS011;68816;45.558;10.070;2024-01-30T00:39:32;58.28;;;31.92;;
63738;SDS011;68816;45.558;10.070;2024-01-30T00:41:58;55.20;;;30.23;;
63738;SDS011;68816;45.558;10.070;2024-01-30T00:44:23;57.45;;;32.22;;
63738;SDS011;68816;45.558;10.070;2024-01-30T00:46:49;57.58;;;30.60;;
63738;SDS011;68816;45.558;10.070;2024-01-30T00:49:14;59.53;;;30.15;;
63738;SDS011;68816;45.558;10.070;2024-01-30T00:51:40;56.85;;;29.98;;
63738;SDS011;68816;45.558;10.070;2024-01-30T00:54:05;56.67;;;31.05;;
63738;SDS011;68816;45.558;10.070;2024-01-30T00:56:31;57.13;;;30.75;;
63738;SDS011;68816;45.558;10.070;2024-01-30T00:58:57;57.83;;;29.95;;
63738;SDS011;68816;45.558;10.070;2024-01-30T01:01:22;55.45;;;28.27;;
63738;SDS011;68816;45.558;10.070;2024-01-30T01:03:48;53.85;;;29.10;;
63738;SDS011;68816;45.558;10.070;2024-01-30T01:06:13;52.65;;;30.23;;
63738;SDS011;68816;45.558;10.070;2024-01-30T01:08:39;59.50;;;31.20;;
63738;SDS011;68816;45.558;10.070;2024-01-30T01:11:05;52.05;;;28.55;;
63738;SDS011;68816;45.558;10.070;2024-01-30T01:13:30;53.20;;;28.13;;
63738;SDS011;68816;45.558;10.070;2024-01-30T01:15:56;54.63;;;27.85;;
63738;SDS011;68816;45.558;10.070;2024-01-30T01:18:21;55.28;;;29.33;;
63738;SDS011;68816;45.558;10.070;2024-01-30T01:20:47;52.67;;;29.02;;
63738;SDS011;68816;45.558;10.070;2024-01-30T01:23:12;53.97;;;28.05;;
63738;SDS011;68816;45.558;10.070;2024-01-30T01:25:37;56.85;;;30.27;;
63738;SDS011;68816;45.558;10.070;2024-01-30T01:28:03;53.72;;;29.58;;
63738;SDS011;68816;45.558;10.070;2024-01-30T01:30:29;61.90;;;31.15;;
63738;SDS011;68816;45.558;10.070;2024-01-30T01:32:55;55.13;;;29.00;;
63738;SDS011;68816;45.558;10.070;2024-01-30T01:35:22;53.85;;;29.55;;
63738;SDS011;68816;45.558;10.070;2024-01-30T01:37:49;52.85;;;28.85;;
63738;SDS011;68816;45.558;10.070;2024-01-30T01:40:26;54.47;;;29.10;;
63738;SDS011;68816;45.558;10.070;2024-01-30T01:42:53;54.58;;;29.65;;
63738;SDS011;68816;45.558;10.070;2024-01-30T01:45:19;50.50;;;28.60;;
63738;SDS011;68816;45.558;10.070;2024-01-30T01:47:47;53.33;;;29.75;;
63738;SDS011;68816;45.558;10.070;2024-01-30T01:50:15;58.65;;;29.10;;
63738;SDS011;68816;45.558;10.070;2024-01-30T01:52:43;57.40;;;30.20;;
63738;SDS011;68816;45.558;10.070;2024-01-30T01:55:10;56.63;;;30.20;;
63738;SDS011;68816;45.558;10.070;2024-01-30T01:57:37;58.10;;;29.55;;
63738;SDS011;68816;45.558;10.070;2024-01-30T02:00:03;51.28;;;28.52;;
63738;SDS011;68816;45.558;10.070;2024-01-30T02:02:34;55.88;;;29.02;;
63738;SDS011;68816;45.558;10.070;2024-01-30T02:05:01;53.67;;;29.08;;
63738;SDS011;68816;45.558;10.070;2024-01-30T02:07:27;52.70;;;27.85;;
63738;SDS011;68816;45.558;10.070;2024-01-30T02:09:53;50.33;;;29.13;;
63738;SDS011;68816;45.558;10.070;2024-01-30T02:12:19;52.83;;;28.48;;
63738;SDS011;68816;45.558;10.070;2024-01-30T02:14:45;47.58;;;27.17;;
63738;SDS011;68816;45.558;10.070;2024-01-30T02:17:11;50.00;;;27.48;;
63738;SDS011;68816;45.558;10.070;2024-01-30T02:19:37;53.30;;;28.92;;
63738;SDS011;68816;45.558;10.070;2024-01-30T02:22:03;50.47;;;27.35;;
63738;SDS011;68816;45.558;10.070;2024-01-30T02:24:29;50.80;;;28.58;;
63738;SDS011;68816;45.558;10.070;2024-01-30T02:26:55;53.38;;;29.15;;
63738;SDS011;68816;45.558;10.070;2024-01-30T02:29:20;52.92;;;28.58;;
63738;SDS011;68816;45.558;10.070;2024-01-30T02:31:46;49.95;;;26.27;;
63738;SDS011;68816;45.558;10.070;2024-01-30T02:34:11;52.10;;;28.38;;
63738;SDS011;68816;45.558;10.070;2024-01-30T02:36:37;49.00;;;27.17;;
63738;SDS011;68816;45.558;10.070;2024-01-30T02:39:03;49.90;;;26.77;;
63738;SDS011;68816;45.558;10.070;2024-01-30T02:41:28;48.33;;;27.20;;
63738;SDS011;68816;45.558;10.070;2024-01-30T02:43:54;54.72;;;26.95;;
63738;SDS011;68816;45.558;10.070;2024-01-30T02:46:19;50.38;;;28.13;;
63738;SDS011;68816;45.558;10.070;2024-01-30T02:48:45;45.63;;;26.45;;
63738;SDS011;68816;45.558;10.070;2024-01-30T02:51:10;49.08;;;25.73;;
63738;SDS011;68816;45.558;10.070;2024-01-30T02:53:36;48.95;;;27.65;;
63738;SDS011;68816;45.558;10.070;2024-01-30T02:56:04;48.42;;;26.60;;
63738;SDS011;68816;45.558;10.070;2024-01-30T02:58:30;50.05;;;26.73;;
63738;SDS011;68816;45.558;10.070;2024-01-30T03:00:56;51.30;;;27.48;;
63738;SDS011;68816;45.558;10.070;2024-01-30T03:03:22;49.85;;;26.55;;
63738;SDS011;68816;45.558;10.070;2024-01-30T03:05:47;45.17;;;25.33;;
63738;SDS011;68816;45.558;10.070;2024-01-30T03:08:13;45.67;;;26.63;;
63738;SDS011;68816;45.558;10.070;2024-01-30T03:10:38;47.28;;;25.33;;
63738;SDS011;68816;45.558;10.070;2024-01-30T03:13:04;52.20;;;26.10;;
63738;SDS011;68816;45.558;10.070;2024-01-30T03:15:29;52.47;;;27.00;;
63738;SDS011;68816;45.558;10.070;2024-01-30T03:17:55;48.30;;;26.48;;
63738;SDS011;68816;45.558;10.070;2024-01-30T03:20:20;44.58;;;25.13;;
63738;SDS011;68816;45.558;10.070;2024-01-30T03:22:45;47.92;;;25.85;;
63738;SDS011;68816;45.558;10.070;2024-01-30T03:25:11;51.83;;;27.45;;
63738;SDS011;68816;45.558;10.070;2024-01-30T03:27:36;50.17;;;26.75;;
63738;SDS011;68816;45.558;10.070;2024-01-30T03:30:02;50.45;;;26.65;;
63738;SDS011;68816;45.558;10.070;2024-01-30T03:32:28;46.42;;;25.40;;
63738;SDS011;68816;45.558;10.070;2024-01-30T03:34:53;45.83;;;25.95;;
63738;SDS011;68816;45.558;10.070;2024-01-30T03:37:19;49.92;;;25.90;;
63738;SDS011;68816;45.558;10.070;2024-01-30T03:39:44;46.50;;;26.05;;
63738;SDS011;68816;45.558;10.070;2024-01-30T03:42:10;48.58;;;25.02;;
63738;SDS011;68816;45.558;10.070;2024-01-30T03:44:35;48.28;;;25.23;;
63738;SDS011;68816;45.558;10.070;2024-01-30T03:47:00;44.88;;;25.15;;
63738;SDS011;68816;45.558;10.070;2024-01-30T03:49:26;45.97;;;25.17;;
63738;SDS011;68816;45.558;10.070;2024-01-30T03:51:51;47.53;;;25.40;;
63738;SDS011;68816;45.558;10.070;2024-01-30T03:54:17;46.72;;;25.65;;
63738;SDS011;68816;45.558;10.070;2024-01-30T03:56:42;47.25;;;25.25;;
63738;SDS011;68816;45.558;10.070;2024-01-30T03:59:08;40.70;;;23.55;;
63738;SDS011;68816;45.558;10.070;2024-01-30T04:01:33;45.10;;;23.92;;
63738;SDS011;68816;45.558;10.070;2024-01-30T04:03:58;49.58;;;25.50;;
63738;SDS011;68816;45.558;10.070;2024-01-30T04:06:24;44.25;;;24.48;;
63738;SDS011;68816;45.558;10.070;2024-01-30T04:08:49;45.45;;;23.88;;
63738;SDS011;68816;45.558;10.070;2024-01-30T04:11:15;43.33;;;24.05;;
63738;SDS011;68816;45.558;10.070;2024-01-30T04:13:45;38.25;;;22.58;;
63738;SDS011;68816;45.558;10.070;2024-01-30T04:16:22;39.92;;;23.60;;
63738;SDS011;68816;45.558;10.070;2024-01-30T04:18:48;45.17;;;24.70;;
63738;SDS011;68816;45.558;10.070;2024-01-30T04:21:13;40.75;;;22.42;;
63738;SDS011;68816;45.558;10.070;2024-01-30T04:23:39;42.15;;;23.08;;
63738;SDS011;68816;45.558;10.070;2024-01-30T04:26:05;46.40;;;23.52;;
63738;SDS011;68816;45.558;10.070;2024-01-30T04:28:31;39.88;;;22.77;;
63738;SDS011;68816;45.558;10.070;2024-01-30T04:30:56;40.40;;;22.75;;
63738;SDS011;68816;45.558;10.070;2024-01-30T04:33:22;36.72;;;21.83;;
63738;SDS011;68816;45.558;10.070;2024-01-30T04:35:47;39.33;;;22.02;;
63738;SDS011;68816;45.558;10.070;2024-01-30T04:38:13;39.97;;;22.75;;
63738;SDS011;68816;45.558;10.070;2024-01-30T04:40:39;40.15;;;22.02;;
63738;SDS011;68816;45.558;10.070;2024-01-30T04:43:05;39.92;;;22.50;;
63738;SDS011;68816;45.558;10.070;2024-01-30T04:45:31;38.65;;;23.15;;
63738;SDS011;68816;45.558;10.070;2024-01-30T04:47:56;41.78;;;21.92;;
63738;SDS011;68816;45.558;10.070;2024-01-30T04:50:22;40.60;;;23.25;;
63738;SDS011;68816;45.558;10.070;2024-01-30T04:52:48;37.40;;;22.52;;
63738;SDS011;68816;45.558;10.070;2024-01-30T04:55:14;38.92;;;21.73;;
63738;SDS011;68816;45.558;10.070;2024-01-30T04:57:39;37.22;;;23.05;;
63738;SDS011;68816;45.558;10.070;2024-01-30T05:00:05;39.60;;;22.75;;
63738;SDS011;68816;45.558;10.070;2024-01-30T05:02:31;39.95;;;23.67;;
63738;SDS011;68816;45.558;10.070;2024-01-30T05:04:57;40.97;;;22.45;;
63738;SDS011;68816;45.558;10.070;2024-01-30T05:07:24;36.10;;;21.67;;
63738;SDS011;68816;45.558;10.070;2024-01-30T05:09:49;39.80;;;23.55;;
63738;SDS011;68816;45.558;10.070;2024-01-30T05:12:15;41.38;;;22.75;;
63738;SDS011;68816;45.558;10.070;2024-01-30T05:14:40;42.22;;;23.60;;
63738;SDS011;68816;45.558;10.070;2024-01-30T05:17:06;39.58;;;22.35;;
63738;SDS011;68816;45.558;10.070;2024-01-30T05:19:33;38.40;;;22.83;;
63738;SDS011;68816;45.558;10.070;2024-01-30T05:21:58;44.13;;;24.30;;
63738;SDS011;68816;45.558;10.070;2024-01-30T05:24:24;43.95;;;23.15;;
63738;SDS011;68816;45.558;10.070;2024-01-30T05:26:49;44.47;;;23.80;;
63738;SDS011;68816;45.558;10.070;2024-01-30T05:29:16;42.70;;;24.95;;
63738;SDS011;68816;45.558;10.070;2024-01-30T05:31:41;50.40;;;25.08;;
63738;SDS011;68816;45.558;10.070;2024-01-30T05:34:07;45.95;;;24.40;;
63738;SDS011;68816;45.558;10.070;2024-01-30T05:36:34;46.58;;;24.65;;
63738;SDS011;68816;45.558;10.070;2024-01-30T05:38:59;43.58;;;24.33;;
63738;SDS011;68816;45.558;10.070;2024-01-30T05:41:25;45.53;;;24.20;;
63738;SDS011;68816;45.558;10.070;2024-01-30T05:43:50;43.83;;;23.90;;
63738;SDS011;68816;45.558;10.070;2024-01-30T05:46:18;47.92;;;24.08;;
63738;SDS011;68816;45.558;10.070;2024-01-30T05:48:44;43.85;;;22.52;;
63738;SDS011;68816;45.558;10.070;2024-01-30T05:51:09;40.30;;;23.02;;
63738;SDS011;68816;45.558;10.070;2024-01-30T05:53:35;43.47;;;22.92;;
63738;SDS011;68816;45.558;10.070;2024-01-30T05:56:03;41.03;;;23.23;;
63738;SDS011;68816;45.558;10.070;2024-01-30T05:58:29;45.00;;;22.30;;
63738;SDS011;68816;45.558;10.070;2024-01-30T06:00:58;39.03;;;21.98;;
63738;SDS011;68816;45.558;10.070;2024-01-30T06:03:24;45.78;;;24.17;;
63738;SDS011;68816;45.558;10.070;2024-01-30T06:05:49;47.15;;;23.30;;
63738;SDS011;68816;45.558;10.070;2024-01-30T06:08:15;47.58;;;22.65;;
63738;SDS011;68816;45.558;10.070;2024-01-30T06:10:40;46.88;;;23.75;;
63738;SDS011;68816;45.558;10.070;2024-01-30T06:13:06;44.60;;;22.98;;
63738;SDS011;68816;45.558;10.070;2024-01-30T06:15:31;41.50;;;22.75;;
63738;SDS011;68816;45.558;10.070;2024-01-30T06:17:58;46.92;;;23.42;;
63738;SDS011;68816;45.558;10.070;2024-01-30T06:20:24;46.65;;;22.50;;
63738;SDS011;68816;45.558;10.070;2024-01-30T06:22:49;48.92;;;23.92;;
63738;SDS011;68816;45.558;10.070;2024-01-30T06:25:15;47.85;;;22.75;;
63738;SDS011;68816;45.558;10.070;2024-01-30T06:27:41;43.40;;;22.63;;
63738;SDS011;68816;45.558;10.070;2024-01-30T06:30:07;54.08;;;24.02;;
63738;SDS011;68816;45.558;10.070;2024-01-30T06:32:33;50.13;;;24.10;;
63738;SDS011;68816;45.558;10.070;2024-01-30T06:35:00;44.33;;;23.20;;
63738;SDS011;68816;45.558;10.070;2024-01-30T06:37:25;46.20;;;23.02;;
63738;SDS011;68816;45.558;10.070;2024-01-30T06:39:51;45.10;;;22.00;;
63738;SDS011;68816;45.558;10.070;2024-01-30T06:42:17;43.22;;;22.42;;
63738;SDS011;68816;45.558;10.070;2024-01-30T06:44:43;44.10;;;21.25;;
63738;SDS011;68816;45.558;10.070;2024-01-30T06:47:09;43.58;;;22.02;;
63738;SDS011;68816;45.558;10.070;2024-01-30T06:49:34;43.88;;;22.10;;
63738;SDS011;68816;45.558;10.070;2024-01-30T06:52:03;48.10;;;22.33;;
63738;SDS011;68816;45.558;10.070;2024-01-30T06:54:31;51.13;;;22.25;;
63738;SDS011;68816;45.558;10.070;2024-01-30T06:56:58;39.72;;;22.45;;
63738;SDS011;68816;45.558;10.070;2024-01-30T06:59:23;44.55;;;22.60;;
63738;SDS011;68816;45.558;10.070;2024-01-30T07:01:49;43.20;;;23.40;;
63738;SDS011;68816;45.558;10.070;2024-01-30T07:04:14;47.83;;;22.88;;
63738;SDS011;68816;45.558;10.070;2024-01-30T07:06:41;44.20;;;22.85;;
63738;SDS011;68816;45.558;10.070;2024-01-30T07:09:06;39.58;;;23.25;;
63738;SDS011;68816;45.558;10.070;2024-01-30T07:11:32;45.35;;;23.30;;
63738;SDS011;68816;45.558;10.070;2024-01-30T07:13:57;42.33;;;22.75;;
63738;SDS011;68816;45.558;10.070;2024-01-30T07:16:23;42.65;;;24.38;;
63738;SDS011;68816;45.558;10.070;2024-01-30T07:18:49;43.42;;;23.33;;
63738;SDS011;68816;45.558;10.070;2024-01-30T07:21:15;43.25;;;23.63;;
63738;SDS011;68816;45.558;10.070;2024-01-30T07:23:40;47.58;;;25.65;;
63738;SDS011;68816;45.558;10.070;2024-01-30T07:26:07;49.17;;;27.38;;
63738;SDS011;68816;45.558;10.070;2024-01-30T07:28:33;49.78;;;27.38;;
63738;SDS011;68816;45.558;10.070;2024-01-30T07:30:59;57.83;;;29.20;;
63738;SDS011;68816;45.558;10.070;2024-01-30T07:33:25;59.35;;;30.85;;
63738;SDS011;68816;45.558;10.070;2024-01-30T07:35:54;62.08;;;32.22;;
63738;SDS011;68816;45.558;10.070;2024-01-30T07:38:20;67.35;;;34.47;;
63738;SDS011;68816;45.558;10.070;2024-01-30T07:40:46;59.97;;;32.95;;
63738;SDS011;68816;45.558;10.070;2024-01-30T07:43:12;72.40;;;37.83;;
63738;SDS011;68816;45.558;10.070;2024-01-30T07:45:37;80.68;;;36.70;;
63738;SDS011;68816;45.558;10.070;2024-01-30T07:48:04;75.93;;;38.83;;
63738;SDS011;68816;45.558;10.070;2024-01-30T07:50:30;87.63;;;36.38;;
63738;SDS011;68816;45.558;10.070;2024-01-30T07:52:56;73.22;;;37.13;;
63738;SDS011;68816;45.558;10.070;2024-01-30T07:55:22;74.53;;;37.38;;
63738;SDS011;68816;45.558;10.070;2024-01-30T07:57:53;71.50;;;34.75;;
63738;SDS011;68816;45.558;10.070;2024-01-30T08:00:20;78.88;;;39.88;;
63738;SDS011;68816;45.558;10.070;2024-01-30T08:02:46;91.03;;;39.88;;
63738;SDS011;68816;45.558;10.070;2024-01-30T08:05:11;80.63;;;40.67;;
63738;SDS011;68816;45.558;10.070;2024-01-30T08:07:39;73.15;;;38.20;;
63738;SDS011;68816;45.558;10.070;2024-01-30T08:10:05;74.55;;;39.40;;
63738;SDS011;68816;45.558;10.070;2024-01-30T08:12:30;77.57;;;39.88;;
63738;SDS011;68816;45.558;10.070;2024-01-30T08:14:56;70.47;;;38.83;;
63738;SDS011;68816;45.558;10.070;2024-01-30T08:17:21;71.90;;;38.17;;
63738;SDS011;68816;45.558;10.070;2024-01-30T08:19:47;79.97;;;41.33;;
63738;SDS011;68816;45.558;10.070;2024-01-30T08:22:12;74.00;;;36.95;;
63738;SDS011;68816;45.558;10.070;2024-01-30T08:24:38;66.03;;;34.75;;
63738;SDS011;68816;45.558;10.070;2024-01-30T08:27:05;69.45;;;37.60;;
63738;SDS011;68816;45.558;10.070;2024-01-30T08:29:31;66.25;;;37.30;;
63738;SDS011;68816;45.558;10.070;2024-01-30T08:31:57;70.32;;;35.67;;
63738;SDS011;68816;45.558;10.070;2024-01-30T08:34:24;68.70;;;35.08;;
63738;SDS011;68816;45.558;10.070;2024-01-30T08:36:49;73.20;;;37.13;;
63738;SDS011;68816;45.558;10.070;2024-01-30T08:39:15;76.05;;;38.00;;
63738;SDS011;68816;45.558;10.070;2024-01-30T08:41:40;70.75;;;39.25;;
63738;SDS011;68816;45.558;10.070;2024-01-30T08:44:06;73.47;;;40.10;;
63738;SDS011;68816;45.558;10.070;2024-01-30T08:46:31;72.78;;;39.55;;
63738;SDS011;68816;45.558;10.070;2024-01-30T08:48:56;71.25;;;39.67;;
63738;SDS011;68816;45.558;10.070;2024-01-30T08:51:22;71.95;;;38.97;;
63738;SDS011;68816;45.558;10.070;2024-01-30T08:53:47;73.45;;;40.05;;
63738;SDS011;68816;45.558;10.070;2024-01-30T08:56:13;76.35;;;38.78;;
63738;SDS011;68816;45.558;10.070;2024-01-30T08:58:38;68.45;;;38.13;;
63738;SDS011;68816;45.558;10.070;2024-01-30T09:01:04;68.50;;;38.42;;
63738;SDS011;68816;45.558;10.070;2024-01-30T09:03:31;67.65;;;36.88;;
63738;SDS011;68816;45.558;10.070;2024-01-30T09:05:56;68.35;;;36.00;;
63738;SDS011;68816;45.558;10.070;2024-01-30T09:08:22;65.13;;;35.50;;
63738;SDS011;68816;45.558;10.070;2024-01-30T09:10:47;65.70;;;34.75;;
63738;SDS011;68816;45.558;10.070;2024-01-30T09:13:14;61.28;;;35.70;;
63738;SDS011;68816;45.558;10.070;2024-01-30T09:15:41;65.88;;;35.95;;
63738;SDS011;68816;45.558;10.070;2024-01-30T09:18:07;70.22;;;37.20;;
63738;SDS011;68816;45.558;10.070;2024-01-30T09:20:32;62.25;;;35.42;;
63738;SDS011;68816;45.558;10.070;2024-01-30T09:22:58;60.10;;;34.03;;
63738;SDS011;68816;45.558;10.070;2024-01-30T09:25:25;60.60;;;34.33;;
63738;SDS011;68816;45.558;10.070;2024-01-30T09:27:50;57.33;;;32.30;;
63738;SDS011;68816;45.558;10.070;2024-01-30T09:30:16;67.80;;;37.95;;
63738;SDS011;68816;45.558;10.070;2024-01-30T09:32:44;60.85;;;33.72;;
63738;SDS011;68816;45.558;10.070;2024-01-30T09:35:09;56.92;;;34.60;;
63738;SDS011;68816;45.558;10.070;2024-01-30T09:37:35;60.05;;;34.90;;
63738;SDS011;68816;45.558;10.070;2024-01-30T09:40:01;64.10;;;35.53;;
63738;SDS011;68816;45.558;10.070;2024-01-30T09:42:28;58.70;;;36.13;;
63738;SDS011;68816;45.558;10.070;2024-01-30T09:44:57;55.55;;;34.95;;
63738;SDS011;68816;45.558;10.070;2024-01-30T09:47:22;54.83;;;34.25;;
63738;SDS011;68816;45.558;10.070;2024-01-30T09:49:48;62.40;;;34.92;;
63738;SDS011;68816;45.558;10.070;2024-01-30T09:52:14;65.47;;;35.80;;
63738;SDS011;68816;45.558;10.070;2024-01-30T09:54:40;55.53;;;32.67;;
63738;SDS011;68816;45.558;10.070;2024-01-30T09:57:07;69.50;;;36.92;;
63738;SDS011;68816;45.558;10.070;2024-01-30T09:59:33;58.60;;;34.22;;
63738;SDS011;68816;45.558;10.070;2024-01-30T10:01:59;60.67;;;34.35;;
63738;SDS011;68816;45.558;10.070;2024-01-30T10:04:25;68.47;;;40.50;;
63738;SDS011;68816;45.558;10.070;2024-01-30T10:06:51;68.20;;;34.60;;
63738;SDS011;68816;45.558;10.070;2024-01-30T10:09:17;58.72;;;35.03;;
63738;SDS011;68816;45.558;10.070;2024-01-30T10:11:42;64.78;;;35.00;;
63738;SDS011;68816;45.558;10.070;2024-01-30T10:14:08;59.78;;;34.42;;
63738;SDS011;68816;45.558;10.070;2024-01-30T10:16:36;57.90;;;33.92;;
63738;SDS011;68816;45.558;10.070;2024-01-30T10:19:02;59.88;;;34.03;;
63738;SDS011;68816;45.558;10.070;2024-01-30T10:21:28;61.58;;;33.25;;
63738;SDS011;68816;45.558;10.070;2024-01-30T10:23:55;55.70;;;32.05;;
63738;SDS011;68816;45.558;10.070;2024-01-30T10:26:20;56.72;;;33.03;;
63738;SDS011;68816;45.558;10.070;2024-01-30T10:28:47;52.92;;;31.98;;
63738;SDS011;68816;45.558;10.070;2024-01-30T10:31:17;54.33;;;31.85;;
63738;SDS011;68816;45.558;10.070;2024-01-30T10:33:44;59.50;;;33.72;;
63738;SDS011;68816;45.558;10.070;2024-01-30T10:36:09;55.55;;;32.92;;
63738;SDS011;68816;45.558;10.070;2024-01-30T10:38:40;59.10;;;33.40;;
63738;SDS011;68816;45.558;10.070;2024-01-30T10:41:11;55.60;;;32.63;;
63738;SDS011;68816;45.558;10.070;2024-01-30T10:43:41;60.83;;;34.10;;
63738;SDS011;68816;45.558;10.070;2024-01-30T10:46:18;59.40;;;32.95;;
63738;SDS011;68816;45.558;10.070;2024-01-30T10:48:46;61.35;;;34.50;;
63738;SDS011;68816;45.558;10.070;2024-01-30T10:51:22;56.47;;;34.00;;
63738;SDS011;68816;45.558;10.070;2024-01-30T10:53:47;55.95;;;32.00;;
63738;SDS011;68816;45.558;10.070;2024-01-30T10:56:14;54.03;;;32.60;;
63738;SDS011;68816;45.558;10.070;2024-01-30T10:58:42;60.58;;;32.95;;
63738;SDS011;68816;45.558;10.070;2024-01-30T11:01:07;54.60;;;31.30;;
63738;SDS011;68816;45.558;10.070;2024-01-30T11:03:34;53.58;;;31.08;;
63738;SDS011;68816;45.558;10.070;2024-01-30T11:06:02;53.13;;;30.27;;
63738;SDS011;68816;45.558;10.070;2024-01-30T11:08:28;48.13;;;30.70;;
63738;SDS011;68816;45.558;10.070;2024-01-30T11:10:57;51.42;;;32.33;;
63738;SDS011;68816;45.558;10.070;2024-01-30T11:13:29;53.67;;;32.28;;
63738;SDS011;68816;45.558;10.070;2024-01-30T11:16:00;58.20;;;31.52;;
63738;SDS011;68816;45.558;10.070;2024-01-30T11:18:28;53.17;;;29.13;;
63738;SDS011;68816;45.558;10.070;2024-01-30T11:20:56;53.22;;;29.60;;
63738;SDS011;68816;45.558;10.070;2024-01-30T11:23:23;55.83;;;31.08;;
63738;SDS011;68816;45.558;10.070;2024-01-30T11:25:48;52.65;;;29.70;;
63738;SDS011;68816;45.558;10.070;2024-01-30T11:28:14;48.38;;;29.48;;
63738;SDS011;68816;45.558;10.070;2024-01-30T11:30:41;46.30;;;27.30;;
63738;SDS011;68816;45.558;10.070;2024-01-30T11:33:11;50.50;;;30.02;;
63738;SDS011;68816;45.558;10.070;2024-01-30T11:35:41;43.45;;;27.50;;
63738;SDS011;68816;45.558;10.070;2024-01-30T11:38:08;53.15;;;32.17;;
63738;SDS011;68816;45.558;10.070;2024-01-30T11:40:36;47.72;;;30.05;;
63738;SDS011;68816;45.558;10.070;2024-01-30T11:43:04;43.92;;;27.90;;
63738;SDS011;68816;45.558;10.070;2024-01-30T11:45:31;43.30;;;26.98;;
63738;SDS011;68816;45.558;10.070;2024-01-30T11:47:57;44.22;;;26.85;;
63738;SDS011;68816;45.558;10.070;2024-01-30T11:50:28;44.17;;;28.58;;
63738;SDS011;68816;45.558;10.070;2024-01-30T11:52:59;42.38;;;26.80;;
63738;SDS011;68816;45.558;10.070;2024-01-30T11:55:25;38.95;;;26.73;;
63738;SDS011;68816;45.558;10.070;2024-01-30T11:57:51;65.28;;;39.90;;
63738;SDS011;68816;45.558;10.070;2024-01-30T12:00:19;40.45;;;27.75;;
63738;SDS011;68816;45.558;10.070;2024-01-30T12:02:49;56.42;;;35.22;;
63738;SDS011;68816;45.558;10.070;2024-01-30T12:05:16;41.78;;;26.45;;
63738;SDS011;68816;45.558;10.070;2024-01-30T12:07:44;39.60;;;26.15;;
63738;SDS011;68816;45.558;10.070;2024-01-30T12:10:10;37.90;;;25.35;;
63738;SDS011;68816;45.558;10.070;2024-01-30T12:12:36;39.28;;;26.10;;
63738;SDS011;68816;45.558;10.070;2024-01-30T12:15:02;45.13;;;28.30;;
63738;SDS011;68816;45.558;10.070;2024-01-30T12:17:31;46.75;;;27.05;;
63738;SDS011;68816;45.558;10.070;2024-01-30T12:22:36;40.50;;;27.48;;
63738;SDS011;68816;45.558;10.070;2024-01-30T12:25:13;40.50;;;27.75;;
63738;SDS011;68816;45.558;10.070;2024-01-30T12:27:39;40.50;;;26.30;;
63738;SDS011;68816;45.558;10.070;2024-01-30T12:30:12;41.55;;;27.70;;
63738;SDS011;68816;45.558;10.070;2024-01-30T12:32:42;42.05;;;28.38;;
63738;SDS011;68816;45.558;10.070;2024-01-30T12:35:10;43.00;;;27.88;;
63738;SDS011;68816;45.558;10.070;2024-01-30T12:37:40;56.85;;;41.65;;
63738;SDS011;68816;45.558;10.070;2024-01-30T12:40:08;45.58;;;28.73;;
63738;SDS011;68816;45.558;10.070;2024-01-30T12:42:34;41.30;;;27.42;;
63738;SDS011;68816;45.558;10.070;2024-01-30T12:45:02;41.90;;;28.48;;
63738;SDS011;68816;45.558;10.070;2024-01-30T12:47:28;43.40;;;30.80;;
63738;SDS011;68816;45.558;10.070;2024-01-30T12:49:53;41.30;;;27.50;;
63738;SDS011;68816;45.558;10.070;2024-01-30T12:52:19;47.63;;;34.10;;
63738;SDS011;68816;45.558;10.070;2024-01-30T12:54:46;41.47;;;28.20;;
63738;SDS011;68816;45.558;10.070;2024-01-30T12:57:12;48.53;;;31.92;;
63738;SDS011;68816;45.558;10.070;2024-01-30T12:59:38;53.05;;;32.85;;
63738;SDS011;68816;45.558;10.070;2024-01-30T13:02:04;55.00;;;34.95;;
63738;SDS011;68816;45.558;10.070;2024-01-30T13:04:29;49.20;;;33.33;;
63738;SDS011;68816;45.558;10.070;2024-01-30T13:06:55;54.05;;;35.13;;
63738;SDS011;68816;45.558;10.070;2024-01-30T13:09:21;50.83;;;32.03;;
63738;SDS011;68816;45.558;10.070;2024-01-30T13:11:48;47.10;;;33.35;;
63738;SDS011;68816;45.558;10.070;2024-01-30T13:14:14;50.40;;;33.10;;
63738;SDS011;68816;45.558;10.070;2024-01-30T13:16:39;53.72;;;35.28;;
63738;SDS011;68816;45.558;10.070;2024-01-30T13:19:05;50.80;;;33.30;;
63738;SDS011;68816;45.558;10.070;2024-01-30T13:21:31;44.63;;;31.25;;
63738;SDS011;68816;45.558;10.070;2024-01-30T13:23:56;42.47;;;30.00;;
63738;SDS011;68816;45.558;10.070;2024-01-30T13:26:22;46.20;;;31.20;;
63738;SDS011;68816;45.558;10.070;2024-01-30T13:28:47;48.03;;;30.60;;
63738;SDS011;68816;45.558;10.070;2024-01-30T13:31:15;44.08;;;30.05;;
63738;SDS011;68816;45.558;10.070;2024-01-30T13:33:41;55.25;;;43.10;;
63738;SDS011;68816;45.558;10.070;2024-01-30T13:36:07;51.10;;;37.40;;
63738;SDS011;68816;45.558;10.070;2024-01-30T13:38:33;55.58;;;40.00;;
63738;SDS011;68816;45.558;10.070;2024-01-30T13:40:59;52.95;;;34.55;;
63738;SDS011;68816;45.558;10.070;2024-01-30T13:43:25;50.05;;;33.50;;
63738;SDS011;68816;45.558;10.070;2024-01-30T13:45:51;46.97;;;33.05;;
63738;SDS011;68816;45.558;10.070;2024-01-30T13:48:17;47.67;;;32.50;;
63738;SDS011;68816;45.558;10.070;2024-01-30T13:50:42;46.60;;;30.73;;
63738;SDS011;68816;45.558;10.070;2024-01-30T13:53:08;51.95;;;33.85;;
63738;SDS011;68816;45.558;10.070;2024-01-30T13:55:33;51.42;;;34.22;;
63738;SDS011;68816;45.558;10.070;2024-01-30T13:57:59;66.40;;;47.50;;
63738;SDS011;68816;45.558;10.070;2024-01-30T14:00:26;44.90;;;30.27;;
63738;SDS011;68816;45.558;10.070;2024-01-30T14:02:52;54.67;;;37.95;;
63738;SDS011;68816;45.558;10.070;2024-01-30T14:05:19;47.92;;;34.72;;